Coral Leaf — PHNI — position and weather

sailwx.info

Track history (hours):
 
Tides and Currents Weather Stations Pressure Air Temp Water Temp Dewpoint Dewpoint Depression Visibility Wind Speed Wind Dir Waves Ship Positions

Coral Leaf

Last reported at 2015-Feb-26 22:20 UTC. Time now 2015-Feb-27 21:15 UTC.
Position N 59°03' E 009°42'.

Length 108 m; draft 5.4 m.

Type: Ship (hazmat cat D). MMSI: 244036000.

Date/timePositionNaut miles runAvg speedWind from/ knotsBaromVisibWave heightAir tempDewpointWater temp
2015-Feb-26 22:20N 59°03' E 009°42'23 5.7
2015-Feb-26 18:21N 58°43' E 010°05'8 2.1
2015-Feb-26 14:25N 58°35' E 010°07'4 4.0
2015-Feb-26 13:19N 58°31' E 010°10'1215.9
2015-Feb-26 12:33N 58°20' E 010°19'1515.2
2015-Feb-26 11:33N 58°06' E 010°31'1515.4
2015-Feb-26 10:33N 57°52' E 010°43'1110.2
2015-Feb-26 09:27N 57°41' E 010°39'0 0.0
2015-Feb-26 08:21N 57°41' E 010°39'0 0.0
2015-Feb-26 07:15N 57°41' E 010°39'0 0.0
2015-Feb-26 05:30N 57°41' E 010°39'0 0.0
2015-Feb-26 04:24N 57°41' E 010°39'3 3.8
2015-Feb-26 03:31N 57°43' E 010°44'1111.7
2015-Feb-26 02:34N 57°46' E 010°24'27114.8
2015-Feb-25 08:13N 54°20' E 005°08'1014.5
2015-Feb-25 07:32N 54°12' E 004°59'1413.9
2015-Feb-25 06:33N 53°59' E 004°53'1413.8
2015-Feb-25 05:33N 53°45' E 004°51'1713.7
2015-Feb-25 04:20N 53°29' E 004°45'911.7
2015-Feb-25 03:33N 53°20' E 004°38'6813.5
2015-Feb-24 22:32N 52°24' E 003°36'1614.2
2015-Feb-24 21:24N 52°09' E 003°28'1415.1
2015-Feb-24 20:28N 51°55' E 003°23'1314.5
2015-Feb-24 19:33N 51°42' E 003°18'1414.6
2015-Feb-24 18:33N 51°29' E 003°29'1111.2
2015-Feb-24 17:33N 51°23' E 003°44'9 9.4
2015-Feb-24 16:34N 51°26' E 003°58'9 9.4
2015-Feb-24 15:33N 51°23' E 004°13'10 9.6
2015-Feb-24 14:34N 51°15' E 004°20'0 0.1
2015-Feb-24 13:33N 51°15' E 004°20'0 0.0
2015-Feb-24 12:33N 51°15' E 004°20'0 0.0
2015-Feb-24 11:33N 51°15' E 004°20'0 0.0
2015-Feb-24 10:33N 51°15' E 004°20'0 0.0
2015-Feb-24 09:33N 51°15' E 004°20'0 0.0
2015-Feb-24 08:33N 51°15' E 004°20'0 0.0
2015-Feb-24 07:33N 51°15' E 004°20'0 0.0
2015-Feb-24 06:33N 51°15' E 004°20'0 0.0
2015-Feb-24 05:33N 51°15' E 004°20'0 0.0
2015-Feb-24 04:33N 51°15' E 004°20'0 0.0
2015-Feb-24 03:33N 51°15' E 004°20'0 0.0
2015-Feb-24 02:32N 51°15' E 004°20'0 0.0
2015-Feb-24 01:32N 51°15' E 004°20'0 0.0
2015-Feb-24 00:32N 51°15' E 004°20'0 0.0
2015-Feb-23 23:32N 51°15' E 004°20'0 0.0
2015-Feb-23 22:32N 51°15' E 004°20'0 0.0
2015-Feb-23 21:32N 51°15' E 004°20'0 0.0
2015-Feb-23 20:32N 51°15' E 004°20'0 0.0
2015-Feb-23 19:32N 51°15' E 004°20'0 0.0
2015-Feb-23 18:32N 51°15' E 004°20'0 0.3
2015-Feb-23 17:33N 51°15' E 004°20'7 6.8
2015-Feb-23 16:34N 51°21' E 004°15'1111.2
2015-Feb-23 15:34N 51°26' E 003°59'1110.9
2015-Feb-23 14:34N 51°26' E 003°41'1211.9
2015-Feb-23 13:33N 51°32' E 003°25'1414.0
2015-Feb-23 12:33N 51°45' E 003°15'1715.3
2015-Feb-23 11:26N 52°02' E 003°20'9110.3
2015-Feb-23 02:32N 53°23' E 004°31'7 7.2
2015-Feb-23 01:30N 53°30' E 004°35'6 6.0
2015-Feb-23 00:31N 53°35' E 004°38'5 5.0
2015-Feb-22 23:33N 53°40' E 004°41'15 4.6
2015-Feb-22 20:22N 53°54' E 004°48'5 6.1
2015-Feb-22 19:32N 53°59' E 004°50'9 8.4
2015-Feb-22 18:32N 54°07' E 004°54'1111.7
2015-Feb-22 17:33N 54°17' E 005°04'19613.7
2015-Feb-22 03:16N 57°07' E 007°55'1113.6
2015-Feb-22 02:26N 57°17' E 008°05'6114.3
2015-Feb-21 22:08N 58°11' E 009°02'5712.4
2015-Feb-21 17:32N 59°04' E 009°39'2 1.5
2015-Feb-21 16:10N 59°06' E 009°36'0 0.0
2015-Feb-20 23:28N 59°06' E 009°36'0 0.0
2015-Feb-20 18:13N 59°06' E 009°36'4 6.6
2015-Feb-20 17:32N 59°03' E 009°43'1310.8
2015-Feb-20 16:21N 58°50' E 009°46'2210.5
2015-Feb-20 14:18N 58°29' E 009°43'17 9.6
2015-Feb-20 12:31N 58°16' E 009°22'17610.4
2015-Feb-19 19:33N 55°36' E 007°05'1110.6
2015-Feb-19 18:33N 55°26' E 007°01'1010.3
2015-Feb-19 17:33N 55°16' E 007°00'1010.3
2015-Feb-19 16:33N 55°05' E 007°03'1110.7
2015-Feb-19 15:33N 54°55' E 007°08'2311.7
2015-Feb-19 13:33N 54°33' E 007°19'1312.9
2015-Feb-19 12:33N 54°20' E 007°26'1212.4
2015-Feb-19 11:33N 54°09' E 007°32'1611.7
2015-Feb-19 10:09N 53°54' E 007°44'711.3
2015-Feb-19 09:30N 53°50' E 007°55'1111.7
2015-Feb-19 08:33N 53°41' E 008°05'2 2.2
2015-Feb-19 07:33N 53°39' E 008°06'0 0.0
2015-Feb-19 06:32N 53°39' E 008°06'0 0.0
2015-Feb-19 05:32N 53°39' E 008°06'0 0.0
2015-Feb-19 04:32N 53°39' E 008°06'0 0.0
2015-Feb-19 03:32N 53°39' E 008°06'0 0.0
2015-Feb-19 02:32N 53°39' E 008°06'0 0.0
2015-Feb-19 01:32N 53°39' E 008°06'0 0.0
2015-Feb-19 00:33N 53°39' E 008°06'0 0.0
2015-Feb-18 23:33N 53°39' E 008°06'0 0.0
2015-Feb-18 22:33N 53°39' E 008°06'0 0.0
2015-Feb-18 21:33N 53°39' E 008°06'0 0.0
2015-Feb-18 20:30N 53°39' E 008°06'0 0.0
2015-Feb-18 19:27N 53°39' E 008°06'0 0.0
2015-Feb-18 18:33N 53°39' E 008°06'0 0.0
2015-Feb-18 17:33N 53°39' E 008°06'0 0.0
2015-Feb-18 16:33N 53°39' E 008°06'0 0.0
2015-Feb-18 15:33N 53°39' E 008°06'0 0.0
2015-Feb-18 14:31N 53°39' E 008°06'0 0.0
2015-Feb-18 13:31N 53°39' E 008°06'0 0.0
2015-Feb-18 12:31N 53°39' E 008°06'6 5.9
2015-Feb-18 11:33N 53°44' E 008°04'1211.7
2015-Feb-18 10:33N 53°53' E 007°52'1 1.3
2015-Feb-18 09:29N 53°55' E 007°52'0 0.0
2015-Feb-18 08:32N 53°55' E 007°52'0 0.0
2015-Feb-18 07:33N 53°55' E 007°52'2 1.6
2015-Feb-18 06:30N 53°55' E 007°49'1313.5
2015-Feb-18 05:33N 54°04' E 007°32'1414.1
2015-Feb-18 04:33N 54°17' E 007°23'1414.2
2015-Feb-18 03:33N 54°30' E 007°16'2018.1
2015-Feb-18 02:27N 54°50' E 007°08'7 7.3
2015-Feb-18 01:33N 54°56' E 007°06'1313.2
2015-Feb-18 00:33N 55°09' E 007°00'1312.8
2015-Feb-17 23:33N 55°22' E 006°60'1312.8
2015-Feb-17 22:33N 55°34' E 006°60'10512.4
2015-Feb-17 14:08N 57°14' E 007°59'12212.6
2015-Feb-17 04:25N 59°05' E 009°38'  
Track history (hours):
 
Tides and Currents Weather Stations Pressure Air Temp Water Temp Dewpoint Dewpoint Depression Visibility Wind Speed Wind Dir Waves Ship Positions

Coral Leaf

Last reported at 2015-Feb-26 22:20 UTC. Time now 2015-Feb-27 21:15 UTC.
Position N 59°03' E 009°42'.

Length 108 m; draft 5.4 m.

Type: Ship (hazmat cat D). MMSI: 244036000.

Date/timePositionNaut miles runAvg speedWind from/ knotsBaromVisibWave heightAir tempDewpointWater temp
2015-Feb-26 22:20N 59°03' E 009°42'23 5.7
2015-Feb-26 18:21N 58°43' E 010°05'8 2.1
2015-Feb-26 14:25N 58°35' E 010°07'4 4.0
2015-Feb-26 13:19N 58°31' E 010°10'1215.9
2015-Feb-26 12:33N 58°20' E 010°19'1515.2
2015-Feb-26 11:33N 58°06' E 010°31'1515.4
2015-Feb-26 10:33N 57°52' E 010°43'1110.2
2015-Feb-26 09:27N 57°41' E 010°39'0 0.0
2015-Feb-26 08:21N 57°41' E 010°39'0 0.0
2015-Feb-26 07:15N 57°41' E 010°39'0 0.0
2015-Feb-26 05:30N 57°41' E 010°39'0 0.0
2015-Feb-26 04:24N 57°41' E 010°39'3 3.8
2015-Feb-26 03:31N 57°43' E 010°44'1111.7
2015-Feb-26 02:34N 57°46' E 010°24'27114.8
2015-Feb-25 08:13N 54°20' E 005°08'1014.5
2015-Feb-25 07:32N 54°12' E 004°59'1413.9
2015-Feb-25 06:33N 53°59' E 004°53'1413.8
2015-Feb-25 05:33N 53°45' E 004°51'1713.7
2015-Feb-25 04:20N 53°29' E 004°45'911.7
2015-Feb-25 03:33N 53°20' E 004°38'6813.5
2015-Feb-24 22:32N 52°24' E 003°36'1614.2
2015-Feb-24 21:24N 52°09' E 003°28'1415.1
2015-Feb-24 20:28N 51°55' E 003°23'1314.5
2015-Feb-24 19:33N 51°42' E 003°18'1414.6
2015-Feb-24 18:33N 51°29' E 003°29'1111.2
2015-Feb-24 17:33N 51°23' E 003°44'9 9.4
2015-Feb-24 16:34N 51°26' E 003°58'9 9.4
2015-Feb-24 15:33N 51°23' E 004°13'10 9.6
2015-Feb-24 14:34N 51°15' E 004°20'0 0.1
2015-Feb-24 13:33N 51°15' E 004°20'0 0.0
2015-Feb-24 12:33N 51°15' E 004°20'0 0.0
2015-Feb-24 11:33N 51°15' E 004°20'0 0.0
2015-Feb-24 10:33N 51°15' E 004°20'0 0.0
2015-Feb-24 09:33N 51°15' E 004°20'0 0.0
2015-Feb-24 08:33N 51°15' E 004°20'0 0.0
2015-Feb-24 07:33N 51°15' E 004°20'0 0.0
2015-Feb-24 06:33N 51°15' E 004°20'0 0.0
2015-Feb-24 05:33N 51°15' E 004°20'0 0.0
2015-Feb-24 04:33N 51°15' E 004°20'0 0.0
2015-Feb-24 03:33N 51°15' E 004°20'0 0.0
2015-Feb-24 02:32N 51°15' E 004°20'0 0.0
2015-Feb-24 01:32N 51°15' E 004°20'0 0.0
2015-Feb-24 00:32N 51°15' E 004°20'0 0.0
2015-Feb-23 23:32N 51°15' E 004°20'0 0.0
2015-Feb-23 22:32N 51°15' E 004°20'0 0.0
2015-Feb-23 21:32N 51°15' E 004°20'0 0.0
2015-Feb-23 20:32N 51°15' E 004°20'0 0.0
2015-Feb-23 19:32N 51°15' E 004°20'0 0.0
2015-Feb-23 18:32N 51°15' E 004°20'0 0.3
2015-Feb-23 17:33N 51°15' E 004°20'7 6.8
2015-Feb-23 16:34N 51°21' E 004°15'1111.2
2015-Feb-23 15:34N 51°26' E 003°59'1110.9
2015-Feb-23 14:34N 51°26' E 003°41'1211.9
2015-Feb-23 13:33N 51°32' E 003°25'1414.0
2015-Feb-23 12:33N 51°45' E 003°15'1715.3
2015-Feb-23 11:26N 52°02' E 003°20'9110.3
2015-Feb-23 02:32N 53°23' E 004°31'7 7.2
2015-Feb-23 01:30N 53°30' E 004°35'6 6.0
2015-Feb-23 00:31N 53°35' E 004°38'5 5.0
2015-Feb-22 23:33N 53°40' E 004°41'15 4.6
2015-Feb-22 20:22N 53°54' E 004°48'5 6.1
2015-Feb-22 19:32N 53°59' E 004°50'9 8.4
2015-Feb-22 18:32N 54°07' E 004°54'1111.7
2015-Feb-22 17:33N 54°17' E 005°04'19613.7
2015-Feb-22 03:16N 57°07' E 007°55'1113.6
2015-Feb-22 02:26N 57°17' E 008°05'6114.3
2015-Feb-21 22:08N 58°11' E 009°02'5712.4
2015-Feb-21 17:32N 59°04' E 009°39'2 1.5
2015-Feb-21 16:10N 59°06' E 009°36'0 0.0
2015-Feb-20 23:28N 59°06' E 009°36'0 0.0
2015-Feb-20 18:13N 59°06' E 009°36'4 6.6
2015-Feb-20 17:32N 59°03' E 009°43'1310.8
2015-Feb-20 16:21N 58°50' E 009°46'2210.5
2015-Feb-20 14:18N 58°29' E 009°43'17 9.6
2015-Feb-20 12:31N 58°16' E 009°22'17610.4
2015-Feb-19 19:33N 55°36' E 007°05'1110.6
2015-Feb-19 18:33N 55°26' E 007°01'1010.3
2015-Feb-19 17:33N 55°16' E 007°00'1010.3
2015-Feb-19 16:33N 55°05' E 007°03'1110.7
2015-Feb-19 15:33N 54°55' E 007°08'2311.7
2015-Feb-19 13:33N 54°33' E 007°19'1312.9
2015-Feb-19 12:33N 54°20' E 007°26'1212.4
2015-Feb-19 11:33N 54°09' E 007°32'1611.7
2015-Feb-19 10:09N 53°54' E 007°44'711.3
2015-Feb-19 09:30N 53°50' E 007°55'1111.7
2015-Feb-19 08:33N 53°41' E 008°05'2 2.2
2015-Feb-19 07:33N 53°39' E 008°06'0 0.0
2015-Feb-19 06:32N 53°39' E 008°06'0 0.0
2015-Feb-19 05:32N 53°39' E 008°06'0 0.0
2015-Feb-19 04:32N 53°39' E 008°06'0 0.0
2015-Feb-19 03:32N 53°39' E 008°06'0 0.0
2015-Feb-19 02:32N 53°39' E 008°06'0 0.0
2015-Feb-19 01:32N 53°39' E 008°06'0 0.0
2015-Feb-19 00:33N 53°39' E 008°06'0 0.0
2015-Feb-18 23:33N 53°39' E 008°06'0 0.0
2015-Feb-18 22:33N 53°39' E 008°06'0 0.0
2015-Feb-18 21:33N 53°39' E 008°06'0 0.0
2015-Feb-18 20:30N 53°39' E 008°06'0 0.0
2015-Feb-18 19:27N 53°39' E 008°06'0 0.0
2015-Feb-18 18:33N 53°39' E 008°06'0 0.0
2015-Feb-18 17:33N 53°39' E 008°06'0 0.0
2015-Feb-18 16:33N 53°39' E 008°06'0 0.0
2015-Feb-18 15:33N 53°39' E 008°06'0 0.0
2015-Feb-18 14:31N 53°39' E 008°06'0 0.0
2015-Feb-18 13:31N 53°39' E 008°06'0 0.0
2015-Feb-18 12:31N 53°39' E 008°06'6 5.9
2015-Feb-18 11:33N 53°44' E 008°04'1211.7
2015-Feb-18 10:33N 53°53' E 007°52'1 1.3
2015-Feb-18 09:29N 53°55' E 007°52'0 0.0
2015-Feb-18 08:32N 53°55' E 007°52'0 0.0
2015-Feb-18 07:33N 53°55' E 007°52'2 1.6
2015-Feb-18 06:30N 53°55' E 007°49'1313.5
2015-Feb-18 05:33N 54°04' E 007°32'1414.1
2015-Feb-18 04:33N 54°17' E 007°23'1414.2
2015-Feb-18 03:33N 54°30' E 007°16'2018.1
2015-Feb-18 02:27N 54°50' E 007°08'7 7.3
2015-Feb-18 01:33N 54°56' E 007°06'1313.2
2015-Feb-18 00:33N 55°09' E 007°00'1312.8
2015-Feb-17 23:33N 55°22' E 006°60'1312.8
2015-Feb-17 22:33N 55°34' E 006°60'10512.4
2015-Feb-17 14:08N 57°14' E 007°59'12212.6
2015-Feb-17 04:25N 59°05' E 009°38'  

Dump ship's entire track history